Time;durP1;ratioP1;P1;durP2;ratioP2;P2;SDS_P1;SDS_P2;PMS_P1;PMS_P2;Temp;Humidity;BMP_temperature;BMP_pressure;BME280_temperature;BME280_humidity;BME280_pressure;Samples;Min_cycle;Max_cycle;Signal;HPM_P1;HPM_P2
2023/04/12 00:01:35;;;;;;;0.20;0.20;;;;;;;17.47;44.19;100590.53;5066791;28;20021;-66
2023/04/12 00:04:03;;;;;;;0.10;0.10;;;;;;;17.62;44.47;100584.25;5057159;28;20377;-68
2023/04/12 00:06:31;;;;;;;0.20;0.20;;;;;;;17.60;44.22;100581.81;5063235;28;20037;-67
2023/04/12 00:09:01;;;;;;;0.20;0.20;;;;;;;18.19;43.78;100574.47;5054717;28;20509;-67
2023/04/12 00:11:27;;;;;;;0.10;0.10;;;;;;;17.78;43.98;100567.63;5039240;28;20032;-68
2023/04/12 00:13:54;;;;;;;0.20;0.20;;;;;;;17.91;44.46;100572.44;5063753;28;20100;-68
2023/04/12 00:16:19;;;;;;;0.10;0.10;;;;;;;17.38;46.25;100567.72;5062792;28;20101;-67
2023/04/12 00:18:45;;;;;;;0.30;0.30;;;;;;;17.71;45.32;100555.44;5056307;28;20365;-66
2023/04/12 00:21:10;;;;;;;0.10;0.10;;;;;;;18.01;45.34;100550.63;5067453;28;20036;-67
2023/04/12 00:23:39;;;;;;;0.10;0.10;;;;;;;17.79;45.97;100546.69;5056481;28;20159;-67
2023/04/12 00:26:04;;;;;;;0.20;0.20;;;;;;;17.69;46.35;100538.59;5068409;28;20033;-67
2023/04/12 00:28:30;;;;;;;0.20;0.20;;;;;;;17.49;47.76;100520.47;5065723;28;20043;-67
2023/04/12 00:30:55;;;;;;;0.20;0.20;;;;;;;17.49;47.76;100517.75;5059376;28;20037;-67
2023/04/12 00:33:21;;;;;;;0.20;0.20;;;;;;;16.68;49.61;100522.53;5071580;28;20128;-68
2023/04/12 00:35:46;;;;;;;0.20;0.20;;;;;;;16.80;50.21;100517.66;5061334;28;20082;-67
2023/04/12 00:38:13;;;;;;;0.20;0.20;;;;;;;16.87;50.49;100499.16;5064922;28;20120;-66
2023/04/12 00:40:41;;;;;;;0.20;0.20;;;;;;;16.59;52.12;100503.28;5069534;28;20035;-67
2023/04/12 00:43:09;;;;;;;0.13;0.13;;;;;;;16.66;52.12;100500.31;5058582;28;20561;-66
2023/04/12 00:45:36;;;;;;;0.22;0.22;;;;;;;16.57;52.21;100499.22;5072663;28;20087;-67
2023/04/12 00:48:02;;;;;;;0.30;0.30;;;;;;;16.71;52.41;100492.13;5054788;28;20412;-67
2023/04/12 00:50:27;;;;;;;0.20;0.20;;;;;;;17.48;49.87;100484.34;5066721;28;20376;-66
2023/04/12 00:52:54;;;;;;;0.13;0.13;;;;;;;17.38;51.15;100478.91;5058733;28;20029;-67
2023/04/12 00:55:19;;;;;;;0.20;0.20;;;;;;;17.57;49.98;100465.56;5071344;28;20039;-67
2023/04/12 00:57:45;;;;;;;0.20;0.20;;;;;;;17.41;50.96;100467.47;5060976;28;20029;-70
2023/04/12 01:00:11;;;;;;;0.10;0.10;;;;;;;17.29;51.88;100456.16;5064274;28;20026;-67
2023/04/12 01:02:38;;;;;;;0.20;0.20;;;;;;;16.98;52.01;100446.47;5067700;28;20468;-67
2023/04/12 01:05:06;;;;;;;0.17;0.17;;;;;;;16.92;52.24;100438.66;5057403;28;20440;-66
2023/04/12 01:07:37;;;;;;;0.10;0.10;;;;;;;17.41;51.80;100448.47;5070222;28;20012;-67
2023/04/12 01:10:21;;;;;;;0.20;0.20;;;;;;;16.54;53.95;100443.63;5063087;28;20105;-66
2023/04/12 01:13:00;;;;;;;0.22;0.22;;;;;;;16.37;54.81;100428.69;5059382;28;20040;-67
2023/04/12 01:15:31;;;;;;;0.20;0.20;;;;;;;16.99;53.06;100428.28;5041574;28;20037;-68
2023/04/12 01:18:10;;;;;;;0.20;0.20;;;;;;;17.12;52.62;100425.78;5066161;28;20036;-68
2023/04/12 01:20:49;;;;;;;0.20;0.20;;;;;;;16.75;54.13;100422.66;5067063;28;20056;-68
2023/04/12 01:23:43;;;;;;;0.20;0.20;;;;;;;17.05;54.52;100417.16;5054622;28;20497;-67
2023/04/12 01:26:33;;;;;;;0.20;0.20;;;;;;;16.83;54.61;100410.44;5053747;28;20037;-68
2023/04/12 01:29:01;;;;;;;0.20;0.20;;;;;;;16.95;54.40;100394.66;5070344;28;20127;-67
2023/04/12 01:31:29;;;;;;;0.20;0.20;;;;;;;16.64;54.73;100385.81;5058019;28;20029;-66
2023/04/12 01:33:56;;;;;;;0.10;0.10;;;;;;;16.35;55.92;100387.47;5065638;28;20040;-65
2023/04/12 01:36:26;;;;;;;0.15;0.15;;;;;;;16.89;54.90;100368.63;5046868;28;20404;-66
2023/04/12 01:38:53;;;;;;;0.10;0.10;;;;;;;16.39;56.05;100372.28;5058082;28;20347;-66
2023/04/12 01:41:19;;;;;;;0.20;0.20;;;;;;;16.13;57.85;100368.81;5066435;28;20040;-66
2023/04/12 01:43:46;;;;;;;0.10;0.10;;;;;;;16.15;58.17;100365.81;5059728;28;20103;-66
2023/04/12 01:46:15;;;;;;;0.25;0.25;;;;;;;15.49;59.72;100356.84;5063743;28;20033;-65
2023/04/12 01:48:53;;;;;;;0.13;0.13;;;;;;;15.80;59.14;100348.47;5053346;28;20040;-66
2023/04/12 01:51:49;;;;;;;0.20;0.20;;;;;;;16.84;55.19;100336.06;5069814;28;20048;-68
2023/04/12 01:54:36;;;;;;;0.20;0.20;;;;;;;16.50;55.76;100334.03;5063819;28;20132;-66
2023/04/12 01:57:03;;;;;;;0.20;0.20;;;;;;;15.98;57.62;100330.84;5056224;28;20040;-67
2023/04/12 01:59:41;;;;;;;0.15;0.15;;;;;;;16.81;56.20;100310.31;5057500;28;20124;-66
2023/04/12 02:02:11;;;;;;;0.20;0.20;;;;;;;15.99;57.69;100293.72;5063747;28;20037;-65
2023/04/12 02:04:37;;;;;;;0.20;0.20;;;;;;;16.03;57.00;100275.84;5067066;28;20033;-67
2023/04/12 02:07:03;;;;;;;0.20;0.20;;;;;;;16.30;56.42;100273.59;5056458;28;20381;-67
2023/04/12 02:09:29;;;;;;;0.10;0.10;;;;;;;16.24;56.74;100275.50;5051045;28;20025;-66
2023/04/12 02:11:55;;;;;;;0.30;0.30;;;;;;;16.49;55.99;100269.22;5043790;28;20030;-66
2023/04/12 02:14:20;;;;;;;0.20;0.20;;;;;;;15.75;59.05;100271.81;5033332;28;20095;-67
2023/04/12 02:16:46;;;;;;;0.13;0.13;;;;;;;16.73;55.12;100275.59;5025911;28;20072;-67
2023/04/12 02:19:12;;;;;;;0.20;0.20;;;;;;;16.07;57.37;100268.78;5033386;28;20033;-66
2023/04/12 02:21:43;;;;;;;0.30;0.30;;;;;;;16.24;57.02;100256.53;5028757;28;20045;-67
2023/04/12 02:24:10;;;;;;;0.20;0.20;;;;;;;16.27;56.82;100253.28;5022615;28;20076;-64
2023/04/12 02:26:37;;;;;;;0.20;0.20;;;;;;;16.83;54.56;100245.69;5034219;28;20033;-66
2023/04/12 02:29:03;;;;;;;0.22;0.22;;;;;;;17.04;54.35;100247.19;5032148;28;20026;-65
2023/04/12 02:31:29;;;;;;;0.17;0.17;;;;;;;16.61;55.11;100237.94;5027978;28;20473;-68
2023/04/12 02:33:55;;;;;;;0.20;0.20;;;;;;;16.84;55.00;100238.38;5028166;28;20040;-66
2023/04/12 02:36:20;;;;;;;0.30;0.30;;;;;;;16.27;56.90;100226.16;5032491;28;20041;-68
2023/04/12 02:38:49;;;;;;;0.10;0.10;;;;;;;15.60;58.87;100221.19;5032981;28;20025;-66
2023/04/12 02:41:19;;;;;;;0.20;0.20;;;;;;;16.57;56.36;100207.06;5026584;28;20038;-67
2023/04/12 02:43:45;;;;;;;0.20;0.20;;;;;;;16.07;58.26;100190.19;5026513;28;20026;-67
2023/04/12 02:46:15;;;;;;;0.10;0.10;;;;;;;16.41;56.47;100183.00;5032934;28;20040;-66
2023/04/12 02:48:40;;;;;;;0.20;0.20;;;;;;;15.74;57.98;100169.97;5032299;28;20779;-66
2023/04/12 02:51:05;;;;;;;0.10;0.10;;;;;;;15.86;57.90;100181.31;5025663;28;20043;-67
2023/04/12 02:53:31;;;;;;;0.10;0.10;;;;;;;15.76;58.68;100181.34;5028244;28;20057;-65
2023/04/12 02:56:00;;;;;;;0.10;0.10;;;;;;;15.78;57.75;100168.34;5032525;28;20479;-66
2023/04/12 02:58:26;;;;;;;0.13;0.13;;;;;;;16.69;55.99;100158.69;5033023;28;20033;-65
2023/04/12 03:00:51;;;;;;;0.10;0.10;;;;;;;16.96;54.65;100155.50;5026202;28;20541;-67
2023/04/12 03:03:17;;;;;;;0.13;0.13;;;;;;;16.33;56.30;100143.69;5009025;28;20052;-66
2023/04/12 03:05:46;;;;;;;0.20;0.20;;;;;;;15.96;57.31;100128.97;5022253;28;20096;-66
2023/04/12 03:08:12;;;;;;;0.10;0.10;;;;;;;15.71;58.13;100119.03;5018184;28;20045;-66
2023/04/12 03:10:38;;;;;;;0.10;0.10;;;;;;;16.17;56.50;100122.38;5032612;28;20342;-67
2023/04/12 03:13:03;;;;;;;0.10;0.10;;;;;;;16.00;56.57;100109.16;5025750;28;20037;-67
2023/04/12 03:15:29;;;;;;;0.22;0.22;;;;;;;15.34;58.71;100108.56;5027919;28;20084;-67
2023/04/12 03:17:55;;;;;;;0.20;0.20;;;;;;;16.45;55.64;100116.25;5030104;28;20083;-67
2023/04/12 03:20:23;;;;;;;0.10;0.10;;;;;;;16.31;56.00;100097.06;5025721;28;20041;-66
2023/04/12 03:22:48;;;;;;;0.20;0.20;;;;;;;16.21;55.87;100086.31;5045086;28;20048;-66
2023/04/12 03:25:16;;;;;;;0.10;0.10;;;;;;;16.19;56.33;100093.09;5052041;28;20041;-67
2023/04/12 03:27:42;;;;;;;0.20;0.20;;;;;;;15.96;56.63;100093.75;5045654;28;20041;-67
2023/04/12 03:30:10;;;;;;;0.10;0.10;;;;;;;16.46;55.63;100069.84;5042103;28;20045;-67
2023/04/12 03:32:40;;;;;;;0.20;0.20;;;;;;;16.33;55.89;100054.19;5045295;28;20052;-67
2023/04/12 03:35:07;;;;;;;0.20;0.20;;;;;;;16.18;55.53;100065.16;5045309;28;20033;-67
2023/04/12 03:37:33;;;;;;;0.10;0.10;;;;;;;16.07;56.60;100047.34;5042428;28;20480;-67
2023/04/12 03:39:59;;;;;;;0.25;0.25;;;;;;;15.34;58.78;100059.00;5040045;28;20107;-67
2023/04/12 03:42:26;;;;;;;0.20;0.20;;;;;;;15.83;57.30;100062.66;5039732;28;20179;-66
2023/04/12 03:44:51;;;;;;;0.20;0.20;;;;;;;16.26;56.16;100042.88;5047039;28;20025;-66
2023/04/12 03:47:17;;;;;;;0.25;0.25;;;;;;;15.72;56.71;100048.31;5046084;28;20031;-67
2023/04/12 03:49:43;;;;;;;0.10;0.10;;;;;;;16.66;54.50;100041.78;5048011;28;20031;-67
2023/04/12 03:52:08;;;;;;;0.13;0.13;;;;;;;16.32;56.24;100033.63;5051406;28;20040;-66
2023/04/12 03:54:34;;;;;;;0.10;0.10;;;;;;;16.33;56.42;100027.09;5045083;28;20049;-70
2023/04/12 03:57:00;;;;;;;0.13;0.13;;;;;;;16.25;56.14;100035.84;5034601;28;20504;-67
2023/04/12 03:59:26;;;;;;;0.10;0.10;;;;;;;16.51;56.12;100015.59;5047685;28;20122;-67
2023/04/12 04:01:51;;;;;;;0.20;0.20;;;;;;;15.98;57.08;100013.78;5038455;28;20373;-68
2023/04/12 04:04:17;;;;;;;0.30;0.30;;;;;;;15.57;58.14;100004.25;5039962;28;20048;-65
2023/04/12 04:06:42;;;;;;;0.20;0.20;;;;;;;16.06;57.39;100007.75;5045340;28;20037;-66
2023/04/12 04:09:07;;;;;;;0.10;0.10;;;;;;;16.20;56.97;100011.47;5034323;28;20041;-66
2023/04/12 04:11:34;;;;;;;0.28;0.28;;;;;;;15.67;58.46;100015.84;5032840;28;20021;-66
2023/04/12 04:13:59;;;;;;;0.20;0.20;;;;;;;15.92;57.06;99993.22;5045100;28;20116;-67
2023/04/12 04:16:25;;;;;;;0.10;0.10;;;;;;;16.09;57.30;100004.50;5040929;28;20576;-70
2023/04/12 04:18:50;;;;;;;0.10;0.10;;;;;;;15.66;58.74;99999.88;5042665;28;20033;-66
2023/04/12 04:21:15;;;;;;;0.20;0.20;;;;;;;16.04;57.92;99995.59;5031792;28;20041;-68
2023/04/12 04:23:43;;;;;;;0.30;0.30;;;;;;;16.04;57.50;99988.25;5043244;28;20033;-66
2023/04/12 04:26:10;;;;;;;0.10;0.10;;;;;;;16.45;56.09;99995.00;5034387;28;20096;-66
2023/04/12 04:28:37;;;;;;;0.10;0.10;;;;;;;15.95;58.50;99984.53;5032071;28;20071;-67
2023/04/12 04:31:05;;;;;;;0.13;0.13;;;;;;;15.41;60.45;99987.22;5048456;28;20033;-66
2023/04/12 04:33:31;;;;;;;0.13;0.13;;;;;;;16.08;58.78;99975.78;5046608;28;20030;-67
2023/04/12 04:35:57;;;;;;;0.10;0.10;;;;;;;16.14;58.47;99966.50;5039238;28;20044;-66
2023/04/12 04:38:25;;;;;;;0.10;0.10;;;;;;;16.01;58.20;99958.22;5044722;28;20631;-66
2023/04/12 04:40:54;;;;;;;0.17;0.17;;;;;;;16.09;58.49;99944.88;5051033;28;20033;-68
2023/04/12 04:43:19;;;;;;;0.20;0.20;;;;;;;15.32;60.58;99944.78;5030481;28;20049;-68
2023/04/12 04:45:49;;;;;;;0.20;0.20;;;;;;;15.73;59.69;99941.59;5028988;28;20040;-68
2023/04/12 04:48:15;;;;;;;0.17;0.17;;;;;;;15.76;59.14;99932.91;5040601;28;20037;-68
2023/04/12 04:50:40;;;;;;;0.10;0.10;;;;;;;16.35;57.48;99929.22;5042956;28;20045;-68
2023/04/12 04:53:06;;;;;;;0.20;0.20;;;;;;;15.97;58.96;99922.75;5042857;28;20113;-68
2023/04/12 04:55:31;;;;;;;0.30;0.30;;;;;;;15.82;59.94;99936.41;5041751;28;20041;-69
2023/04/12 04:57:57;;;;;;;0.10;0.10;;;;;;;15.88;59.78;99929.84;5043420;28;20040;-68
2023/04/12 05:00:24;;;;;;;0.20;0.20;;;;;;;15.56;61.12;99933.06;5039164;28;20068;-68
2023/04/12 05:02:50;;;;;;;0.10;0.10;;;;;;;16.17;58.46;99924.47;5039655;28;20488;-67
2023/04/12 05:05:16;;;;;;;0.20;0.20;;;;;;;15.77;60.13;99923.69;5036905;28;20119;-68
2023/04/12 05:07:42;;;;;;;0.25;0.25;;;;;;;15.93;60.18;99924.41;5039148;28;20036;-68
2023/04/12 05:10:09;;;;;;;0.20;0.20;;;;;;;15.53;60.70;99903.00;5046145;28;20041;-69
2023/04/12 05:12:34;;;;;;;0.10;0.10;;;;;;;15.25;61.46;99909.88;5034243;28;20424;-68
2023/04/12 05:15:00;;;;;;;0.20;0.20;;;;;;;15.35;62.14;99909.03;5048488;28;20122;-67
2023/04/12 05:17:26;;;;;;;0.20;0.20;;;;;;;15.52;60.92;99909.50;5042133;28;20044;-68
2023/04/12 05:19:51;;;;;;;0.20;0.20;;;;;;;15.84;60.24;99899.81;5054018;28;20724;-67
2023/04/12 05:22:19;;;;;;;0.20;0.20;;;;;;;15.50;61.34;99903.56;5048804;28;20045;-68
2023/04/12 05:24:45;;;;;;;0.20;0.20;;;;;;;15.62;61.41;99891.31;5054096;28;20127;-69
2023/04/12 05:27:10;;;;;;;0.10;0.10;;;;;;;16.32;58.39;99887.19;5067803;28;20418;-68
2023/04/12 05:29:36;;;;;;;0.20;0.20;;;;;;;15.64;60.32;99885.59;5053820;28;20032;-68
2023/04/12 05:32:01;;;;;;;0.20;0.20;;;;;;;15.87;60.00;99898.44;5053847;28;20029;-69
2023/04/12 05:34:26;;;;;;;0.20;0.20;;;;;;;16.21;59.27;99895.72;5054045;28;20068;-69
2023/04/12 05:36:52;;;;;;;0.20;0.20;;;;;;;16.25;59.00;99884.03;5035814;28;20033;-67
2023/04/12 05:39:17;;;;;;;0.10;0.10;;;;;;;16.39;57.93;99884.16;5053619;28;20384;-69
2023/04/12 05:41:43;;;;;;;0.20;0.20;;;;;;;16.08;59.02;99882.84;5053472;28;20080;-68
2023/04/12 05:44:08;;;;;;;0.20;0.20;;;;;;;16.71;57.43;99883.59;5053690;28;20056;-68
2023/04/12 05:46:33;;;;;;;0.20;0.20;;;;;;;16.35;58.97;99888.53;5054227;28;20116;-68
2023/04/12 05:48:59;;;;;;;0.20;0.20;;;;;;;16.36;58.32;99882.81;5053378;28;20514;-68
2023/04/12 05:51:25;;;;;;;0.20;0.20;;;;;;;15.87;60.43;99879.47;5053471;28;20097;-68
2023/04/12 05:53:50;;;;;;;0.20;0.20;;;;;;;15.62;61.69;99882.38;5053419;28;20036;-68
2023/04/12 05:56:15;;;;;;;0.20;0.20;;;;;;;15.83;61.09;99876.53;5052601;28;20043;-68
2023/04/12 05:58:41;;;;;;;0.20;0.20;;;;;;;16.04;59.82;99874.44;5035716;28;20033;-69
2023/04/12 06:01:06;;;;;;;0.20;0.20;;;;;;;16.45;59.70;99869.47;5053559;28;20037;-71
2023/04/12 06:03:32;;;;;;;0.20;0.20;;;;;;;16.27;59.05;99876.41;5053520;28;20037;-69
2023/04/12 06:05:57;;;;;;;0.30;0.30;;;;;;;15.73;61.81;99870.34;5053551;28;20051;-69
2023/04/12 06:08:23;;;;;;;0.10;0.10;;;;;;;15.78;59.87;99871.13;5053291;28;20037;-70
2023/04/12 06:10:48;;;;;;;0.17;0.17;;;;;;;15.71;61.97;99870.66;5050948;28;20029;-67
2023/04/12 06:13:14;;;;;;;0.20;0.20;;;;;;;15.68;61.25;99871.19;5051627;28;20037;-68
2023/04/12 06:15:39;;;;;;;0.25;0.25;;;;;;;16.16;60.91;99864.03;5052977;28;20437;-69
2023/04/12 06:18:07;;;;;;;0.10;0.10;;;;;;;15.47;62.92;99864.31;5053296;28;20037;-69
2023/04/12 06:20:33;;;;;;;0.30;0.30;;;;;;;16.63;59.11;99860.59;5027612;28;20469;-68
2023/04/12 06:22:58;;;;;;;0.10;0.10;;;;;;;16.05;61.04;99861.69;5032951;28;20107;-69
2023/04/12 06:25:24;;;;;;;0.20;0.20;;;;;;;15.83;61.56;99851.31;5033592;28;20067;-67
2023/04/12 06:27:50;;;;;;;0.10;0.10;;;;;;;15.28;63.17;99848.97;5038117;28;20036;-68
2023/04/12 06:30:15;;;;;;;0.20;0.20;;;;;;;16.14;60.60;99847.25;5046471;28;20037;-69
2023/04/12 06:32:41;;;;;;;0.20;0.20;;;;;;;15.86;60.86;99839.13;5050028;28;20481;-68
2023/04/12 06:35:06;;;;;;;0.10;0.10;;;;;;;15.57;62.05;99836.34;5022224;28;20465;-69
2023/04/12 06:37:32;;;;;;;0.20;0.20;;;;;;;16.20;60.55;99837.97;5052967;28;20104;-68
2023/04/12 06:39:57;;;;;;;0.28;0.28;;;;;;;15.92;61.80;99835.28;5038957;28;20035;-68
2023/04/12 06:42:23;;;;;;;0.20;0.20;;;;;;;16.18;60.60;99829.31;5039555;28;20068;-67
2023/04/12 06:44:48;;;;;;;0.20;0.20;;;;;;;16.19;60.56;99838.25;5052819;28;20040;-69
2023/04/12 06:47:14;;;;;;;0.20;0.20;;;;;;;15.61;62.95;99826.56;5052686;28;20119;-68
2023/04/12 06:49:40;;;;;;;0.20;0.20;;;;;;;15.54;62.61;99829.63;5053397;28;20114;-68
2023/04/12 06:52:05;;;;;;;0.15;0.15;;;;;;;15.96;61.41;99828.19;5052393;28;20638;-67
2023/04/12 06:54:30;;;;;;;0.20;0.20;;;;;;;15.92;61.23;99827.16;5052683;28;20052;-68
2023/04/12 06:56:56;;;;;;;0.20;0.20;;;;;;;15.53;62.98;99833.41;5052739;28;20033;-68
2023/04/12 06:59:22;;;;;;;0.10;0.10;;;;;;;16.48;60.38;99822.78;5052769;28;20036;-68
2023/04/12 07:01:47;;;;;;;0.20;0.20;;;;;;;16.58;59.70;99825.41;5052304;28;20082;-67
2023/04/12 07:04:12;;;;;;;0.20;0.20;;;;;;;15.77;62.74;99823.47;5052602;28;20532;-70
2023/04/12 07:06:38;;;;;;;0.30;0.30;;;;;;;16.16;60.90;99827.97;5052187;28;20037;-67
2023/04/12 07:09:03;;;;;;;0.20;0.20;;;;;;;16.41;60.26;99823.09;5051905;28;20124;-67
2023/04/12 07:11:30;;;;;;;0.20;0.20;;;;;;;16.38;60.22;99829.13;5052588;28;20049;-67
2023/04/12 07:13:57;;;;;;;0.30;0.30;;;;;;;16.30;60.59;99823.50;5052007;28;20033;-67
2023/04/12 07:16:23;;;;;;;0.20;0.20;;;;;;;16.06;61.45;99822.69;5052810;28;20048;-66
2023/04/12 07:18:49;;;;;;;0.15;0.15;;;;;;;16.61;59.97;99817.47;5052141;28;20029;-69
2023/04/12 07:21:16;;;;;;;0.10;0.10;;;;;;;16.07;61.63;99825.09;5051909;28;20029;-68
2023/04/12 07:23:41;;;;;;;0.10;0.10;;;;;;;15.75;63.35;99828.38;5051825;28;20068;-69
2023/04/12 07:26:07;;;;;;;0.20;0.20;;;;;;;14.95;65.96;99826.16;5052159;28;20524;-68
2023/04/12 07:28:34;;;;;;;0.20;0.20;;;;;;;15.92;62.80;99821.72;5052640;28;20032;-68
2023/04/12 07:31:00;;;;;;;0.20;0.20;;;;;;;15.96;62.88;99818.13;5052049;28;20044;-68
2023/04/12 07:33:25;;;;;;;0.20;0.20;;;;;;;16.35;61.77;99824.25;5051954;28;20041;-67
2023/04/12 07:35:50;;;;;;;0.10;0.10;;;;;;;16.72;60.76;99811.94;5049987;28;20461;-68
2023/04/12 07:38:16;;;;;;;0.10;0.10;;;;;;;16.96;59.68;99815.44;5050478;28;20033;-67
2023/04/12 07:40:41;;;;;;;0.30;0.30;;;;;;;16.88;59.77;99802.50;5052396;28;20099;-69
2023/04/12 07:43:06;;;;;;;0.20;0.20;;;;;;;16.41;60.78;99804.13;5051502;28;20119;-68
2023/04/12 07:45:35;;;;;;;0.20;0.20;;;;;;;16.51;61.02;99806.75;5051357;28;20075;-67
2023/04/12 07:48:02;;;;;;;0.22;0.22;;;;;;;16.73;59.99;99802.72;5051434;28;20496;-68
2023/04/12 07:50:27;;;;;;;0.20;0.20;;;;;;;16.85;59.45;99803.06;5051186;28;20037;-66
2023/04/12 07:52:53;;;;;;;0.10;0.10;;;;;;;16.98;58.76;99789.59;5051320;28;20587;-67
2023/04/12 07:55:18;;;;;;;0.28;0.28;;;;;;;16.65;59.58;99796.00;5051917;28;20104;-67
2023/04/12 07:57:44;;;;;;;0.17;0.17;;;;;;;16.49;61.59;99800.03;5051314;28;20105;-66
2023/04/12 08:00:10;;;;;;;0.20;0.20;;;;;;;16.65;60.62;99799.53;5051229;28;20037;-67
2023/04/12 08:02:35;;;;;;;0.10;0.10;;;;;;;16.01;63.10;99818.13;5051283;28;20053;-67
2023/04/12 08:05:01;;;;;;;0.20;0.20;;;;;;;16.90;60.43;99811.16;5051208;28;20083;-67
2023/04/12 08:07:26;;;;;;;0.17;0.17;;;;;;;16.22;62.02;99803.25;5033595;28;20044;-66
2023/04/12 08:09:51;;;;;;;0.30;0.30;;;;;;;16.29;61.29;99806.44;5051130;28;20056;-69
2023/04/12 08:12:17;;;;;;;0.20;0.20;;;;;;;15.74;63.53;99817.81;5051327;28;20043;-67
2023/04/12 08:14:42;;;;;;;0.20;0.20;;;;;;;16.74;61.01;99812.47;5051449;28;20029;-66
2023/04/12 08:17:07;;;;;;;0.20;0.20;;;;;;;16.35;62.12;99804.47;5051296;28;20427;-67
2023/04/12 08:19:34;;;;;;;0.20;0.20;;;;;;;17.28;59.71;99801.94;5052023;28;20052;-67
2023/04/12 08:21:59;;;;;;;0.20;0.20;;;;;;;16.45;61.41;99804.38;5051148;28;20074;-67
2023/04/12 08:24:25;;;;;;;0.20;0.20;;;;;;;17.74;57.88;99789.28;5050714;28;20540;-66
2023/04/12 08:26:50;;;;;;;0.20;0.20;;;;;;;17.68;58.61;99798.63;5050910;28;20037;-67
2023/04/12 08:29:16;;;;;;;0.20;0.20;;;;;;;17.26;60.05;99791.38;5050635;28;20120;-66
2023/04/12 08:31:42;;;;;;;0.10;0.10;;;;;;;17.77;58.38;99815.06;5045010;28;20029;-66
2023/04/12 08:34:07;;;;;;;0.10;0.10;;;;;;;17.28;59.18;99808.19;5046044;28;20095;-67
2023/04/12 08:36:32;;;;;;;0.30;0.30;;;;;;;17.81;57.19;99816.09;5050925;28;20127;-66
2023/04/12 08:38:59;;;;;;;0.15;0.15;;;;;;;17.59;58.66;99800.41;5050775;28;20029;-66
2023/04/12 08:41:24;;;;;;;0.20;0.20;;;;;;;18.24;56.35;99804.69;5033001;28;20509;-67
2023/04/12 08:43:51;;;;;;;0.20;0.20;;;;;;;18.25;56.10;99797.34;5050913;28;20109;-66
2023/04/12 08:46:16;;;;;;;0.30;0.30;;;;;;;18.11;57.36;99796.50;5051332;28;20020;-67
2023/04/12 08:48:47;;;;;;;0.10;0.10;;;;;;;18.56;55.81;99794.84;5050903;28;20475;-68
2023/04/12 08:51:15;;;;;;;0.10;0.10;;;;;;;17.80;57.17;99795.44;5055142;28;20111;-67
2023/04/12 08:53:40;;;;;;;0.30;0.30;;;;;;;18.02;57.72;99796.41;5054730;28;20025;-66
2023/04/12 08:56:09;;;;;;;0.20;0.20;;;;;;;17.74;57.86;99791.19;5054518;28;20032;-67
2023/04/12 08:58:38;;;;;;;0.10;0.10;;;;;;;18.51;55.93;99801.22;5055424;28;20086;-67
2023/04/12 09:01:03;;;;;;;0.10;0.10;;;;;;;17.08;59.44;99788.66;5054611;28;20037;-67
2023/04/12 09:03:30;;;;;;;0.20;0.20;;;;;;;17.44;57.98;99793.25;5054085;28;20044;-66
2023/04/12 09:05:55;;;;;;;0.10;0.10;;;;;;;17.09;59.58;99803.84;5054534;28;20350;-66
2023/04/12 09:08:21;;;;;;;0.20;0.20;;;;;;;16.82;60.94;99799.06;5054368;28;20048;-68
2023/04/12 09:10:46;;;;;;;0.10;0.10;;;;;;;16.72;60.34;99809.22;5054260;28;20459;-68
2023/04/12 09:13:11;;;;;;;0.20;0.20;;;;;;;16.36;62.42;99806.91;5054980;28;20032;-66
2023/04/12 09:15:47;;;;;;;0.20;0.20;;;;;;;16.29;62.72;99805.63;5052108;28;20108;-67
2023/04/12 09:18:13;;;;;;;0.30;0.30;;;;;;;16.66;62.11;99801.16;5055003;28;20044;-65
2023/04/12 09:20:39;;;;;;;0.20;0.20;;;;;;;17.62;59.34;99796.28;5054223;28;20068;-67
2023/04/12 09:23:25;;;;;;;0.30;0.30;;;;;;;17.73;58.53;99795.03;5054299;28;20559;-68
2023/04/12 09:25:52;;;;;;;0.20;0.20;;;;;;;18.16;57.04;99786.34;5054245;28;20043;-68
2023/04/12 09:28:27;;;;;;;0.10;0.10;;;;;;;18.90;56.13;99776.16;5054798;28;20119;-66
2023/04/12 09:30:54;;;;;;;0.30;0.30;;;;;;;19.34;54.60;99772.75;5053878;28;20036;-67
2023/04/12 09:33:22;;;;;;;0.20;0.20;;;;;;;19.46;54.56;99770.28;5053666;28;20037;-66
2023/04/12 09:35:48;;;;;;;0.20;0.20;;;;;;;20.31;52.74;99759.06;5049276;28;20485;-66
2023/04/12 09:38:14;;;;;;;0.10;0.10;;;;;;;20.52;52.12;99751.94;5053816;28;20033;-67
2023/04/12 09:40:40;;;;;;;0.17;0.17;;;;;;;20.60;51.79;99751.94;5054498;28;20056;-67
2023/04/12 09:43:06;;;;;;;0.20;0.20;;;;;;;20.62;51.18;99759.81;5053992;28;20493;-67
2023/04/12 09:45:37;;;;;;;0.20;0.20;;;;;;;18.49;54.83;99775.41;5053373;28;20032;-69
2023/04/12 09:48:04;;;;;;;0.20;0.20;;;;;;;17.94;56.51;99763.66;5053403;28;20044;-67
2023/04/12 09:50:32;;;;;;;0.15;0.15;;;;;;;18.27;55.81;99767.91;5053108;28;20082;-67
2023/04/12 09:52:58;;;;;;;0.20;0.20;;;;;;;18.22;56.01;99773.47;5053244;28;20036;-68
2023/04/12 09:55:26;;;;;;;0.20;0.20;;;;;;;18.61;55.42;99771.06;5053936;28;20029;-67
2023/04/12 09:57:52;;;;;;;0.22;0.22;;;;;;;18.99;55.21;99772.41;5053125;28;20040;-66
2023/04/12 10:00:21;;;;;;;0.20;0.20;;;;;;;18.98;53.34;99773.53;5052768;28;20036;-65
2023/04/12 10:02:49;;;;;;;0.22;0.22;;;;;;;18.34;55.71;99766.41;5052653;28;20029;-67
2023/04/12 10:05:17;;;;;;;0.30;0.30;;;;;;;19.00;54.89;99770.50;5053185;28;20025;-67
2023/04/12 10:07:43;;;;;;;0.15;0.15;;;;;;;19.22;53.34;99765.88;5034990;28;20059;-66
2023/04/12 10:10:11;;;;;;;0.20;0.20;;;;;;;19.19;51.96;99762.97;5053337;28;20033;-66
2023/04/12 10:12:38;;;;;;;0.22;0.22;;;;;;;19.03;51.68;99759.78;5052430;28;20052;-68
2023/04/12 10:15:11;;;;;;;0.20;0.20;;;;;;;20.17;52.00;99754.50;5053197;28;20041;-66
2023/04/12 10:17:45;;;;;;;0.10;0.10;;;;;;;19.36;52.04;99754.19;5053112;28;20520;-67
2023/04/12 10:20:12;;;;;;;0.13;0.13;;;;;;;18.38;52.72;99745.66;5035014;28;20025;-67
2023/04/12 10:22:39;;;;;;;0.20;0.20;;;;;;;18.86;50.96;99753.38;5053085;28;20563;-68
2023/04/12 10:25:09;;;;;;;0.20;0.20;;;;;;;19.96;49.41;99755.34;5052779;28;20041;-67
2023/04/12 10:27:35;;;;;;;0.10;0.10;;;;;;;18.43;51.52;99755.66;5052753;28;20041;-68
2023/04/12 10:30:29;;;;;;;0.20;0.20;;;;;;;18.98;50.05;99762.66;5052918;28;20114;-67
2023/04/12 10:33:01;;;;;;;0.20;0.20;;;;;;;19.23;49.42;99755.81;5052729;28;20025;-67
2023/04/12 10:35:26;;;;;;;0.10;0.10;;;;;;;18.87;48.88;99761.25;5048227;28;20036;-69
2023/04/12 10:38:03;;;;;;;0.20;0.20;;;;;;;19.37;47.18;99747.59;5034539;28;20037;-67
2023/04/12 10:40:30;;;;;;;0.20;0.20;;;;;;;19.29;47.16;99751.84;5053499;28;20350;-68
2023/04/12 10:43:27;;;;;;;0.10;0.10;;;;;;;18.87;47.14;99755.78;5052801;28;20110;-69
2023/04/12 10:45:52;;;;;;;0.20;0.20;;;;;;;19.25;47.45;99748.13;5052612;28;20037;-68
2023/04/12 10:48:34;;;;;;;0.20;0.20;;;;;;;19.58;45.28;99745.97;5039041;28;20041;-69
2023/04/12 10:51:24;;;;;;;0.20;0.20;;;;;;;20.12;45.83;99737.47;5050441;28;20041;-68
2023/04/12 10:53:50;;;;;;;0.20;0.20;;;;;;;20.45;43.35;99740.66;5052766;28;20024;-67
2023/04/12 10:56:31;;;;;;;0.20;0.20;;;;;;;21.31;41.65;99736.94;5072134;28;20056;-67
2023/04/12 10:59:01;;;;;;;0.10;0.10;;;;;;;20.32;42.81;99738.84;5071729;28;20393;-67
2023/04/12 11:01:27;;;;;;;0.20;0.20;;;;;;;20.06;42.41;99736.81;5072425;28;20027;-68
2023/04/12 11:04:07;;;;;;;0.10;0.10;;;;;;;19.02;42.27;99727.44;5071974;28;20033;-67
2023/04/12 11:06:51;;;;;;;0.10;0.10;;;;;;;21.37;41.51;99727.44;5060748;28;20034;-69
2023/04/12 11:09:30;;;;;;;0.20;0.20;;;;;;;20.40;40.08;99725.22;5045030;28;20108;-68
2023/04/12 11:11:55;;;;;;;0.15;0.15;;;;;;;21.07;39.89;99733.88;5051853;28;20114;-67
2023/04/12 11:14:26;;;;;;;0.20;0.20;;;;;;;20.35;39.53;99719.91;5051984;28;20126;-69
2023/04/12 11:17:07;;;;;;;0.20;0.20;;;;;;;20.98;40.38;99736.59;5052282;28;20083;-69
2023/04/12 11:19:48;;;;;;;0.20;0.20;;;;;;;20.17;41.66;99739.25;5038967;28;20021;-69
2023/04/12 11:22:15;;;;;;;0.10;0.10;;;;;;;20.13;42.41;99741.78;5051733;28;20122;-67
2023/04/12 11:24:45;;;;;;;0.10;0.10;;;;;;;21.18;39.64;99724.25;5043553;28;20029;-69
2023/04/12 11:27:11;;;;;;;0.10;0.10;;;;;;;20.01;40.21;99736.13;5051600;28;20039;-69
2023/04/12 11:29:36;;;;;;;0.10;0.10;;;;;;;20.36;38.06;99737.91;5051555;28;20100;-68
2023/04/12 11:32:03;;;;;;;0.13;0.13;;;;;;;19.39;41.90;99742.66;5051758;28;20029;-68